Time;durP1;ratioP1;P1;durP2;ratioP2;P2;SDS_P1;SDS_P2;PMS_P1;PMS_P2;Temp;Humidity;BMP_temperature;BMP_pressure;BME280_temperature;BME280_humidity;BME280_pressure;Samples;Min_cycle;Max_cycle;Signal;HPM_P1;HPM_P2
2021/12/28 00:01:06;;;;;;;56.23;24.33;;;;;;;-6.83;100.00;100749.98;1658638;86;21153;-80
2021/12/28 00:03:35;;;;;;;45.67;21.23;;;;;;;-6.85;100.00;100754.19;1663492;83;21311;-80
2021/12/28 00:06:02;;;;;;;50.73;24.20;;;;;;;-6.85;100.00;100752.91;1666516;85;21097;-80
2021/12/28 00:08:28;;;;;;;52.67;23.00;;;;;;;-6.86;100.00;100752.42;1666397;86;21097;-81
2021/12/28 00:10:56;;;;;;;52.80;24.37;;;;;;;-6.86;100.00;100748.58;1666300;86;21137;-80
2021/12/28 00:13:25;;;;;;;56.27;24.70;;;;;;;-6.88;100.00;100748.92;1666237;86;21092;-79
2021/12/28 00:18:25;;;;;;;57.73;23.97;;;;;;;-6.87;100.00;100752.84;1666203;84;21065;-83
2021/12/28 00:20:58;;;;;;;54.75;25.48;;;;;;;-6.85;100.00;100758.03;1661868;83;21073;-80
2021/12/28 00:23:32;;;;;;;64.17;25.93;;;;;;;-6.84;100.00;100758.48;1661797;86;21073;-79
2021/12/28 00:25:58;;;;;;;53.00;21.73;;;;;;;-6.82;100.00;100755.59;1661477;86;21599;-80
2021/12/28 00:28:25;;;;;;;71.80;28.07;;;;;;;-6.84;100.00;100750.81;1661725;86;21049;-81
2021/12/28 00:30:52;;;;;;;62.17;24.17;;;;;;;-6.85;100.00;100747.79;1661570;86;21093;-80
2021/12/28 00:33:20;;;;;;;68.90;25.20;;;;;;;-6.85;100.00;100746.52;1661749;84;21636;-80
2021/12/28 00:35:46;;;;;;;81.13;30.50;;;;;;;-6.86;100.00;100744.74;1661933;83;21065;-80
2021/12/28 00:38:21;;;;;;;54.27;25.37;;;;;;;-6.88;100.00;100742.52;1662711;86;21135;-82
2021/12/28 00:40:52;;;;;;;56.97;24.87;;;;;;;-6.91;100.00;100737.27;1663051;86;21077;-82
2021/12/28 00:43:19;;;;;;;53.10;24.33;;;;;;;-6.92;100.00;100730.38;1663183;86;21088;-81
2021/12/28 00:45:46;;;;;;;53.80;24.70;;;;;;;-6.93;100.00;100728.64;1663203;86;21076;-79
2021/12/28 00:48:13;;;;;;;73.17;30.30;;;;;;;-6.93;100.00;100732.08;1663290;84;21587;-80
2021/12/28 00:50:40;;;;;;;55.07;24.83;;;;;;;-6.94;100.00;100728.19;1662996;86;21138;-81
2021/12/28 00:53:06;;;;;;;51.23;22.30;;;;;;;-6.93;100.00;100728.64;1662994;86;21049;-80
2021/12/28 00:55:33;;;;;;;63.87;28.17;;;;;;;-6.97;100.00;100728.52;1663068;84;21069;-80
2021/12/28 00:58:00;;;;;;;46.67;22.80;;;;;;;-6.99;100.00;100727.99;1663146;86;21165;-78
2021/12/28 01:00:29;;;;;;;51.63;23.53;;;;;;;-7.00;100.00;100719.41;1663067;86;21148;-79
2021/12/28 01:02:57;;;;;;;49.47;22.63;;;;;;;-7.00;100.00;100718.54;1663058;83;21935;-77
2021/12/28 01:05:25;;;;;;;55.37;23.70;;;;;;;-7.02;100.00;100723.59;1663209;85;21049;-78
2021/12/28 01:07:53;;;;;;;54.13;25.07;;;;;;;-7.02;100.00;100724.87;1633243;87;21611;-78
2021/12/28 01:10:27;;;;;;;53.57;24.60;;;;;;;-7.02;100.00;100718.47;1663067;86;21124;-77
2021/12/28 01:12:55;;;;;;;53.97;24.37;;;;;;;-7.00;100.00;100723.25;1663195;86;21548;-79
2021/12/28 01:15:25;;;;;;;52.90;24.13;;;;;;;-7.01;100.00;100729.20;1661754;86;21160;-78
2021/12/28 01:17:52;;;;;;;50.00;24.13;;;;;;;-7.02;100.00;100724.00;1661821;84;21073;-78
2021/12/28 01:20:18;;;;;;;64.67;27.20;;;;;;;-7.01;100.00;100726.63;1661578;84;21694;-79
2021/12/28 01:22:46;;;;;;;51.77;24.83;;;;;;;-7.02;100.00;100722.30;1661965;86;21081;-76
2021/12/28 01:25:14;;;;;;;49.87;24.33;;;;;;;-7.05;100.00;100711.94;1661876;86;21077;-77
2021/12/28 01:27:42;;;;;;;57.37;25.27;;;;;;;-7.05;100.00;100714.91;1661994;86;21120;-76
2021/12/28 01:30:10;;;;;;;86.60;34.43;;;;;;;-7.06;100.00;100720.45;1661717;86;21592;-77
2021/12/28 01:32:37;;;;;;;54.13;25.27;;;;;;;-7.05;100.00;100722.59;1662029;86;21778;-76
2021/12/28 01:35:06;;;;;;;108.83;41.50;;;;;;;-7.06;100.00;100717.89;1661617;85;21077;-75
2021/12/28 01:37:34;;;;;;;63.42;30.95;;;;;;;-7.08;100.00;100716.08;1661882;86;21152;-74
2021/12/28 01:40:02;;;;;;;53.87;24.20;;;;;;;-7.07;100.00;100719.95;1661834;86;22182;-73
2021/12/28 01:42:29;;;;;;;52.30;23.37;;;;;;;-7.06;100.00;100725.95;1662089;86;21081;-73
2021/12/28 01:44:56;;;;;;;57.90;24.20;;;;;;;-7.07;100.00;100731.48;1661810;86;21737;-72
2021/12/28 01:47:23;;;;;;;54.47;25.20;;;;;;;-7.06;100.00;100723.01;1662989;84;21199;-73
2021/12/28 01:49:51;;;;;;;50.60;23.13;;;;;;;-7.08;100.00;100718.63;1663329;86;21141;-73
2021/12/28 01:52:17;;;;;;;54.23;23.93;;;;;;;-7.07;100.00;100723.80;1663227;86;21479;-74
2021/12/28 01:54:44;;;;;;;56.63;25.47;;;;;;;-7.09;100.00;100719.02;1663094;84;21611;-72
2021/12/28 01:57:10;;;;;;;70.47;30.10;;;;;;;-7.10;100.00;100712.16;1663682;86;21088;-71
2021/12/28 01:59:40;;;;;;;50.53;23.73;;;;;;;-7.07;100.00;100709.72;1663248;86;21589;-72
2021/12/28 02:02:07;;;;;;;52.87;23.20;;;;;;;-7.07;100.00;100712.28;1662711;83;21559;-71
2021/12/28 02:04:33;;;;;;;73.13;30.17;;;;;;;-7.06;100.00;100707.65;1663514;86;21121;-73
2021/12/28 02:07:02;;;;;;;50.87;24.40;;;;;;;-7.07;100.00;100698.20;1630983;87;21118;-73
2021/12/28 02:09:28;;;;;;;51.67;24.97;;;;;;;-7.05;100.00;100708.52;1625916;88;21598;-73
2021/12/28 02:11:56;;;;;;;51.97;25.47;;;;;;;-7.08;100.00;100701.58;1626392;88;21127;-73
2021/12/28 02:14:22;;;;;;;49.63;23.23;;;;;;;-7.10;100.00;100698.48;1626387;88;21586;-73
2021/12/28 02:16:49;;;;;;;48.80;23.47;;;;;;;-7.12;100.00;100688.58;1626023;87;21140;-73
2021/12/28 02:19:16;;;;;;;51.30;23.70;;;;;;;-7.12;100.00;100686.89;1627565;86;21450;-73
2021/12/28 02:21:42;;;;;;;48.50;23.47;;;;;;;-7.19;100.00;100679.77;1644049;87;21090;-74
2021/12/28 02:24:09;;;;;;;45.40;22.63;;;;;;;-7.14;100.00;100696.19;1620393;85;21032;-74
2021/12/28 02:26:38;;;;;;;46.80;23.60;;;;;;;-7.15;100.00;100691.89;1609017;87;21312;-72
2021/12/28 02:29:05;;;;;;;50.63;23.90;;;;;;;-7.18;100.00;100694.30;1662398;84;21228;-73
2021/12/28 02:31:31;;;;;;;45.87;22.83;;;;;;;-7.18;100.00;100694.30;1662590;86;21072;-73
2021/12/28 02:34:03;;;;;;;48.10;23.07;;;;;;;-7.19;100.00;100690.00;1662283;85;21106;-74
2021/12/28 02:36:29;;;;;;;57.38;23.83;;;;;;;-7.19;100.00;100695.98;1638325;86;21530;-77
2021/12/28 02:38:56;;;;;;;48.20;23.57;;;;;;;-7.20;100.00;100690.79;1662804;86;21705;-75
2021/12/28 02:41:22;;;;;;;55.27;25.47;;;;;;;-7.20;100.00;100690.79;1662458;86;21134;-76
2021/12/28 02:43:49;;;;;;;109.50;42.83;;;;;;;-7.18;100.00;100700.69;1662862;84;21074;-77
2021/12/28 02:46:17;;;;;;;50.00;22.17;;;;;;;-7.20;100.00;100689.51;1663553;85;21114;-76
2021/12/28 02:48:44;;;;;;;52.30;25.13;;;;;;;-7.16;100.00;100700.36;1664815;85;21050;-74
2021/12/28 02:51:15;;;;;;;55.90;25.43;;;;;;;-7.16;100.00;100704.20;1665568;86;21074;-75
2021/12/28 02:53:43;;;;;;;50.83;22.67;;;;;;;-7.16;100.00;100700.36;1666354;85;21129;-79
2021/12/28 02:56:11;;;;;;;54.30;23.40;;;;;;;-7.17;100.00;100697.34;1666523;86;21093;-80
2021/12/28 02:58:42;;;;;;;50.07;24.30;;;;;;;-7.20;100.00;100690.79;1666772;84;21035;-77
2021/12/28 03:01:14;;;;;;;51.88;23.42;;;;;;;-7.20;100.00;100684.02;1664267;84;21147;-75
2021/12/28 03:03:43;;;;;;;58.07;24.93;;;;;;;-7.21;100.00;100679.69;1658219;86;21065;-76
2021/12/28 03:06:17;;;;;;;45.23;21.73;;;;;;;-7.22;100.00;100675.80;1694514;84;21915;-75
2021/12/28 03:08:48;;;;;;;50.23;22.80;;;;;;;-7.22;100.00;100671.96;1694365;84;21074;-76
2021/12/28 03:11:16;;;;;;;46.17;21.57;;;;;;;-7.25;100.00;100677.80;1692158;84;21056;-76
2021/12/28 03:13:48;;;;;;;46.43;23.33;;;;;;;-7.27;100.00;100674.70;1656148;86;21093;-76
2021/12/28 03:16:14;;;;;;;222.70;80.47;;;;;;;-7.34;100.00;100678.67;1690974;84;21121;-77
2021/12/28 03:18:44;;;;;;;50.90;24.03;;;;;;;-7.41;100.00;100678.84;1655830;86;21061;-78
2021/12/28 03:21:12;;;;;;;53.00;21.90;;;;;;;-7.43;100.00;100677.89;1670854;83;21117;-79
2021/12/28 03:23:39;;;;;;;47.57;22.93;;;;;;;-7.49;100.00;100669.94;1642293;86;21068;-78
2021/12/28 03:26:06;;;;;;;49.53;22.50;;;;;;;-7.51;100.00;100670.27;1663086;86;21602;-78
2021/12/28 03:28:36;;;;;;;55.53;23.53;;;;;;;-7.53;100.00;100678.27;1633062;87;21105;-78
2021/12/28 03:31:04;;;;;;;47.73;21.03;;;;;;;-7.53;100.00;100671.02;1663056;86;21090;-80
2021/12/28 03:33:32;;;;;;;44.70;23.03;;;;;;;-7.56;100.00;100665.77;1663189;84;21143;-78
2021/12/28 03:35:58;;;;;;;42.87;21.20;;;;;;;-7.57;100.00;100668.70;1633953;87;21123;-79
2021/12/28 03:38:25;;;;;;;48.13;22.20;;;;;;;-7.62;100.00;100665.94;1664282;86;21076;-79
2021/12/28 03:40:52;;;;;;;66.53;25.00;;;;;;;-7.65;100.00;100666.23;1634318;87;21056;-79
2021/12/28 03:43:19;;;;;;;59.63;25.07;;;;;;;-7.65;100.00;100670.06;1667096;81;21189;-79
2021/12/28 03:45:46;;;;;;;49.70;23.83;;;;;;;-7.65;100.00;100673.90;1637685;82;21010;-78
2021/12/28 03:48:12;;;;;;;48.03;22.93;;;;;;;-7.67;100.00;100671.67;1667926;81;21092;-80
2021/12/28 03:50:40;;;;;;;87.60;33.80;;;;;;;-7.72;100.00;100680.83;1636005;87;21310;-79
2021/12/28 03:53:07;;;;;;;52.07;22.33;;;;;;;-7.74;100.00;100679.88;1663318;84;21029;-76
2021/12/28 03:55:35;;;;;;;46.50;21.63;;;;;;;-7.77;100.00;100678.06;1663123;86;22090;-75
2021/12/28 03:58:03;;;;;;;47.33;21.90;;;;;;;-7.78;100.00;100670.31;1663535;86;21033;-74
2021/12/28 04:00:34;;;;;;;50.27;23.23;;;;;;;-7.81;100.00;100674.48;1633712;86;21068;-75
2021/12/28 04:03:01;;;;;;;49.23;22.50;;;;;;;-7.85;100.00;100670.02;1662428;86;21060;-75
2021/12/28 04:05:27;;;;;;;75.60;31.83;;;;;;;-7.88;100.00;100655.83;1607097;89;21037;-76
2021/12/28 04:07:54;;;;;;;84.33;34.47;;;;;;;-7.89;100.00;100654.47;1636958;85;21339;-79
2021/12/28 04:10:29;;;;;;;169.77;61.20;;;;;;;-7.92;100.00;100656.91;1667098;86;21068;-80
2021/12/28 04:12:51;;;;;;;107.45;45.88;;;;;;;-7.95;100.00;100651.25;1666895;86;21068;-79
2021/12/28 04:15:17;;;;;;;138.07;52.50;;;;;;;-7.94;100.00;100647.88;1667391;84;21111;-75
2021/12/28 04:17:44;;;;;;;103.33;40.97;;;;;;;-7.97;100.00;100643.91;1666992;84;21069;-76
2021/12/28 04:20:15;;;;;;;103.97;37.97;;;;;;;-7.99;100.00;100639.12;1666907;85;21151;-77
2021/12/28 04:22:42;;;;;;;74.33;30.37;;;;;;;-8.02;100.00;100636.03;1664332;86;21080;-78
2021/12/28 04:25:09;;;;;;;127.20;38.87;;;;;;;-8.02;100.00;100644.11;1653399;86;21547;-77
2021/12/28 04:27:35;;;;;;;94.97;32.90;;;;;;;-8.04;100.00;100649.55;1684223;83;21079;-77
2021/12/28 04:30:05;;;;;;;98.63;42.93;;;;;;;-8.04;100.00;100644.44;1667353;86;21116;-75
2021/12/28 04:32:33;;;;;;;124.27;54.60;;;;;;;-8.04;100.00;100649.14;1619334;86;21136;-67
2021/12/28 04:35:00;;;;;;;171.40;54.63;;;;;;;-8.05;100.00;100658.00;1608613;89;21679;-67
2021/12/28 04:37:27;;;;;;;83.33;30.93;;;;;;;-8.02;100.00;100657.76;1633911;87;21182;-68
2021/12/28 04:39:53;;;;;;;124.07;38.40;;;;;;;-7.99;100.00;100658.30;1666479;86;21568;-66
2021/12/28 04:42:19;;;;;;;71.27;27.43;;;;;;;-7.99;100.00;100659.98;1640986;86;21424;-66
2021/12/28 04:44:49;;;;;;;136.57;37.13;;;;;;;-8.03;100.00;100655.13;1639974;85;21144;-68
2021/12/28 04:47:16;;;;;;;158.33;47.63;;;;;;;-8.07;100.00;100649.42;1639554;87;21164;-67
2021/12/28 04:49:45;;;;;;;135.87;63.43;;;;;;;-8.09;100.00;100653.58;1658554;86;21614;-66
2021/12/28 04:52:13;;;;;;;129.77;38.93;;;;;;;-8.11;100.00;100656.47;1667006;85;21279;-67
2021/12/28 04:54:39;;;;;;;109.50;34.80;;;;;;;-8.14;100.00;100645.70;1666748;86;21085;-67
2021/12/28 04:57:06;;;;;;;146.97;39.13;;;;;;;-8.15;100.00;100650.33;1666859;86;21715;-67
2021/12/28 04:59:32;;;;;;;76.80;28.77;;;;;;;-8.16;100.00;100646.44;1667401;84;21595;-65
2021/12/28 05:01:59;;;;;;;79.23;29.80;;;;;;;-8.17;100.00;100648.09;1634627;87;22114;-66
2021/12/28 05:04:25;;;;;;;134.27;34.37;;;;;;;-8.16;100.00;100638.36;1619512;87;21076;-66
2021/12/28 05:06:54;;;;;;;88.07;28.60;;;;;;;-8.18;100.00;100637.82;1643159;86;21120;-66
2021/12/28 05:09:23;;;;;;;83.77;27.00;;;;;;;-8.19;100.00;100646.28;1662996;86;21571;-68
2021/12/28 05:11:50;;;;;;;109.50;33.20;;;;;;;-8.19;100.00;100651.39;1664392;86;21079;-68
2021/12/28 05:14:18;;;;;;;139.43;50.30;;;;;;;-8.22;100.00;100650.44;1663614;85;21158;-68
2021/12/28 05:16:46;;;;;;;177.00;49.67;;;;;;;-8.23;100.00;100651.25;1665464;84;21109;-67
2021/12/28 05:19:14;;;;;;;146.37;38.40;;;;;;;-8.25;100.00;100655.82;1662945;85;21158;-69
2021/12/28 05:21:43;;;;;;;135.03;37.70;;;;;;;-8.28;100.00;100660.39;1664280;84;21130;-69
2021/12/28 05:24:09;;;;;;;101.47;33.23;;;;;;;-8.29;100.00;100654.79;1617086;87;21092;-67
2021/12/28 05:26:36;;;;;;;80.03;29.97;;;;;;;-8.31;100.00;100654.25;1625409;87;21080;-67
2021/12/28 05:29:03;;;;;;;80.27;28.90;;;;;;;-8.31;100.00;100660.23;1662560;86;21051;-68
2021/12/28 05:31:30;;;;;;;86.23;30.63;;;;;;;-8.31;100.00;100653.84;1662518;84;21053;-68
2021/12/28 05:33:57;;;;;;;82.50;30.33;;;;;;;-8.32;100.00;100648.27;1632908;87;21348;-66
2021/12/28 05:36:24;;;;;;;86.50;32.10;;;;;;;-8.33;100.00;100643.95;1635898;87;21596;-67
2021/12/28 05:38:50;;;;;;;65.00;28.40;;;;;;;-8.34;100.00;100644.77;1646424;84;21116;-67
2021/12/28 05:41:17;;;;;;;65.80;25.90;;;;;;;-8.34;100.00;100647.31;1635898;87;21086;-67
2021/12/28 05:43:45;;;;;;;71.53;28.87;;;;;;;-8.33;100.00;100655.85;1636204;86;21099;-66
2021/12/28 05:46:14;;;;;;;236.37;74.00;;;;;;;-8.31;100.00;100650.00;1662052;86;21312;-66
2021/12/28 05:48:40;;;;;;;87.83;33.23;;;;;;;-8.33;100.00;100654.16;1662210;86;21152;-66
2021/12/28 05:51:07;;;;;;;185.43;57.40;;;;;;;-8.35;100.00;100657.45;1662714;84;21024;-65
2021/12/28 05:53:35;;;;;;;105.17;34.40;;;;;;;-8.39;100.00;100651.34;1663173;86;21103;-65
2021/12/28 05:56:02;;;;;;;85.93;32.17;;;;;;;-8.41;100.00;100650.42;1663346;86;21142;-66
2021/12/28 05:58:28;;;;;;;76.37;28.30;;;;;;;-8.45;100.00;100651.08;1663237;84;21131;-66
2021/12/28 06:00:56;;;;;;;66.30;26.27;;;;;;;-8.49;100.00;100658.11;1661319;86;21058;-66
2021/12/28 06:03:22;;;;;;;140.33;48.00;;;;;;;-8.51;100.00;100656.78;1635858;87;21137;-68
2021/12/28 06:05:48;;;;;;;74.07;28.13;;;;;;;-8.53;100.00;100649.85;1640660;86;21432;-68
2021/12/28 06:08:15;;;;;;;71.40;27.13;;;;;;;-8.54;100.00;100653.19;1660612;86;21123;-68
2021/12/28 06:10:41;;;;;;;75.47;28.93;;;;;;;-8.58;100.00;100650.91;1682901;84;21080;-66
2021/12/28 06:13:07;;;;;;;81.93;29.10;;;;;;;-8.59;100.00;100649.55;1662517;84;21064;-66
2021/12/28 06:15:35;;;;;;;107.27;34.00;;;;;;;-8.63;100.00;100644.67;1630569;85;21674;-66
2021/12/28 06:18:02;;;;;;;73.37;29.97;;;;;;;-8.66;100.00;100644.13;1616083;87;21671;-67
2021/12/28 06:20:28;;;;;;;86.77;31.50;;;;;;;-8.66;100.00;100650.52;1606783;89;21120;-66
2021/12/28 06:22:56;;;;;;;91.03;36.27;;;;;;;-8.64;100.00;100651.01;1630657;85;21600;-66
2021/12/28 06:25:24;;;;;;;122.07;45.03;;;;;;;-8.64;100.00;100657.39;1632395;86;21078;-67
2021/12/28 06:27:50;;;;;;;162.47;50.87;;;;;;;-8.65;100.00;100660.32;1633242;87;21032;-67
2021/12/28 06:30:17;;;;;;;81.93;28.90;;;;;;;-8.64;100.00;100661.22;1635726;86;21567;-67
2021/12/28 06:32:43;;;;;;;95.60;31.87;;;;;;;-8.64;100.00;100654.43;1634553;87;21064;-66
2021/12/28 06:35:10;;;;;;;65.13;26.60;;;;;;;-8.62;100.00;100662.17;1630615;87;21750;-67
2021/12/28 06:37:37;;;;;;;62.57;26.93;;;;;;;-8.60;100.00;100665.66;1632459;87;21033;-66
2021/12/28 06:40:06;;;;;;;83.70;31.10;;;;;;;-8.59;100.00;100661.91;1634390;87;21076;-67
2021/12/28 06:42:33;;;;;;;57.53;25.17;;;;;;;-8.56;100.00;100664.59;1635809;87;21139;-62
2021/12/28 06:44:59;;;;;;;61.47;25.57;;;;;;;-8.54;100.00;100665.95;1636055;85;21543;-65
2021/12/28 06:47:26;;;;;;;67.97;28.33;;;;;;;-8.53;100.00;100670.28;1632811;87;21570;-67
2021/12/28 06:49:52;;;;;;;72.37;28.57;;;;;;;-8.52;100.00;100674.58;1636411;86;21139;-70
2021/12/28 06:52:19;;;;;;;97.63;33.70;;;;;;;-8.50;100.00;100666.18;1633638;87;21075;-70
2021/12/28 06:54:45;;;;;;;87.27;32.00;;;;;;;-8.47;100.00;100665.45;1633575;87;21111;-69
2021/12/28 06:57:14;;;;;;;63.00;27.20;;;;;;;-8.42;100.00;100668.22;1630947;86;21077;-75
2021/12/28 06:59:43;;;;;;;72.43;30.17;;;;;;;-8.38;100.00;100665.85;1633020;87;21174;-74
2021/12/28 07:02:11;;;;;;;82.33;31.13;;;;;;;-8.35;100.00;100662.19;1637283;87;21021;-73
2021/12/28 07:04:39;;;;;;;82.83;30.40;;;;;;;-8.32;100.00;100657.63;1637165;87;21056;-72
2021/12/28 07:07:05;;;;;;;80.83;30.80;;;;;;;-8.33;100.00;100656.72;1635265;87;21073;-68
2021/12/28 07:09:33;;;;;;;83.57;31.40;;;;;;;-8.34;100.00;100655.39;1629183;88;21405;-68
2021/12/28 07:12:00;;;;;;;60.90;27.33;;;;;;;-8.43;100.00;100633.27;1626209;85;21155;-71
2021/12/28 07:14:28;;;;;;;76.53;29.07;;;;;;;-8.28;100.00;100662.95;1630473;85;21060;-72
2021/12/28 07:16:56;;;;;;;72.97;28.93;;;;;;;-8.27;100.00;100663.41;1658127;84;21162;-70
2021/12/28 07:19:23;;;;;;;112.27;40.47;;;;;;;-8.25;100.00;100660.52;1662207;84;21082;-71
2021/12/28 07:21:51;;;;;;;75.30;29.87;;;;;;;-8.23;100.00;100664.03;1661735;84;21052;-68
2021/12/28 07:24:18;;;;;;;86.97;29.37;;;;;;;-8.19;100.00;100660.33;1662693;86;21221;-69
2021/12/28 07:26:45;;;;;;;70.00;28.03;;;;;;;-8.17;100.00;100671.09;1662323;86;20993;-70
2021/12/28 07:29:12;;;;;;;77.90;30.77;;;;;;;-8.15;100.00;100666.06;1662730;84;21550;-71
2021/12/28 07:31:39;;;;;;;66.50;29.10;;;;;;;-8.14;100.00;100661.03;1661387;85;21160;-67
2021/12/28 07:34:05;;;;;;;68.30;29.50;;;;;;;-8.15;100.00;100653.28;1661749;86;21061;-65
2021/12/28 07:36:33;;;;;;;63.80;29.10;;;;;;;-8.16;100.00;100646.03;1662097;86;21296;-67
2021/12/28 07:39:00;;;;;;;75.90;32.00;;;;;;;-8.14;100.00;100634.20;1663045;86;21111;-72
2021/12/28 07:41:26;;;;;;;67.73;30.87;;;;;;;-8.12;100.00;100648.31;1662634;86;21119;-71
2021/12/28 07:43:53;;;;;;;93.77;36.10;;;;;;;-8.05;100.00;100641.39;1662811;86;21048;-71
2021/12/28 07:46:19;;;;;;;60.97;27.97;;;;;;;-8.00;100.00;100645.06;1662671;86;21437;-72
2021/12/28 07:48:46;;;;;;;66.13;29.00;;;;;;;-7.95;100.00;100642.30;1662716;84;21152;-72
2021/12/28 07:51:12;;;;;;;85.00;34.40;;;;;;;-7.90;100.00;100647.63;1662535;86;21076;-73
2021/12/28 07:53:39;;;;;;;57.50;26.47;;;;;;;-7.88;100.00;100639.21;1662626;86;21606;-72
2021/12/28 07:56:05;;;;;;;65.80;32.73;;;;;;;-7.83;100.00;100636.45;1662682;84;21069;-73
2021/12/28 07:58:32;;;;;;;63.33;30.03;;;;;;;-7.81;100.00;100647.63;1663019;86;21119;-71
2021/12/28 08:01:00;;;;;;;68.60;28.50;;;;;;;-7.86;100.00;100644.41;1662587;86;21071;-72
2021/12/28 08:03:27;;;;;;;66.50;28.67;;;;;;;-7.92;100.00;100639.88;1662623;86;21120;-73
2021/12/28 08:05:53;;;;;;;64.07;28.30;;;;;;;-7.95;100.00;100637.19;1676244;84;21068;-71
2021/12/28 08:08:19;;;;;;;69.83;29.47;;;;;;;-7.98;100.00;100639.62;1632362;87;21068;-72
2021/12/28 08:10:46;;;;;;;65.67;27.90;;;;;;;-8.01;100.00;100634.34;1662730;84;21080;-72
2021/12/28 08:13:13;;;;;;;69.33;28.67;;;;;;;-7.99;100.00;100644.65;1663444;84;21691;-72
2021/12/28 08:15:40;;;;;;;61.00;28.47;;;;;;;-7.98;100.00;100640.89;1664870;84;21082;-75
2021/12/28 08:18:09;;;;;;;65.40;28.40;;;;;;;-7.97;100.00;100637.52;1666145;86;21085;-74
2021/12/28 08:20:38;;;;;;;68.87;29.60;;;;;;;-7.96;100.00;100629.03;1665339;86;21085;-74
2021/12/28 08:23:05;;;;;;;56.87;27.47;;;;;;;-7.95;100.00;100633.77;1665921;84;21115;-74
2021/12/28 08:25:31;;;;;;;56.03;26.43;;;;;;;-7.98;100.00;100638.72;1664121;86;21509;-74
2021/12/28 08:28:00;;;;;;;65.00;28.87;;;;;;;-7.98;100.00;100633.23;1663906;84;21114;-73
2021/12/28 08:34:11;;;;;;;62.33;28.67;;;;;;;-7.88;100.00;100626.43;1813683;79;26813;-73
2021/12/28 08:36:39;;;;;;;70.43;29.83;;;;;;;-7.95;99.71;100623.13;1786898;80;21048;-74
2021/12/28 08:39:05;;;;;;;73.03;32.27;;;;;;;-7.96;99.39;100621.36;1778842;80;21130;-75
2021/12/28 08:41:33;;;;;;;68.80;30.93;;;;;;;-7.98;98.76;100621.72;1759783;80;21619;-75
2021/12/28 08:43:59;;;;;;;76.17;32.30;;;;;;;-7.99;99.13;100621.23;1734623;81;21040;-74
2021/12/28 08:46:26;;;;;;;69.60;30.70;;;;;;;-7.98;99.50;100621.72;1748447;81;21122;-74
2021/12/28 08:48:55;;;;;;;70.33;30.03;;;;;;;-7.98;98.94;100619.17;1740893;81;21528;-75
2021/12/28 08:51:22;;;;;;;67.67;28.57;;;;;;;-7.99;98.91;100608.45;1683858;84;21115;-65
2021/12/28 08:53:48;;;;;;;63.73;28.30;;;;;;;-8.00;98.44;100610.55;1703586;83;21057;-68
2021/12/28 08:56:15;;;;;;;58.73;28.17;;;;;;;-8.03;97.67;100611.29;1701743;83;21613;-69
2021/12/28 08:58:41;;;;;;;64.67;28.17;;;;;;;-8.07;97.36;100609.80;1705088;83;21252;-67
2021/12/28 09:01:08;;;;;;;60.20;27.70;;;;;;;-8.07;97.79;100605.97;1717254;83;21081;-67
2021/12/28 09:03:34;;;;;;;60.97;26.10;;;;;;;-8.06;97.81;100608.58;1695911;83;21119;-66
2021/12/28 09:06:02;;;;;;;62.97;26.37;;;;;;;-8.04;97.57;100609.52;1690374;83;21129;-68
2021/12/28 09:08:29;;;;;;;69.53;28.13;;;;;;;-8.02;97.40;100597.69;1715977;83;21085;-67
2021/12/28 09:10:58;;;;;;;62.10;27.47;;;;;;;-7.97;97.45;100596.62;1692479;83;21038;-66
2021/12/28 09:13:25;;;;;;;67.97;29.50;;;;;;;-7.94;96.84;100591.63;1707341;83;21081;-66
2021/12/28 09:15:52;;;;;;;67.43;30.30;;;;;;;-7.94;96.63;100590.77;1710363;82;21171;-67
2021/12/28 09:18:20;;;;;;;72.60;31.43;;;;;;;-7.94;96.15;100591.63;1712106;83;21664;-68
2021/12/28 09:20:47;;;;;;;69.13;31.10;;;;;;;-7.90;96.45;100582.43;1706830;83;21113;-66
2021/12/28 09:23:13;;;;;;;65.13;28.77;;;;;;;-7.86;96.43;100578.80;1697967;83;21080;-67
2021/12/28 09:25:42;;;;;;;66.97;29.50;;;;;;;-7.84;95.77;100569.52;1700883;83;21608;-67
2021/12/28 09:28:09;;;;;;;67.30;29.43;;;;;;;-7.84;95.39;100563.13;1703149;83;21155;-67
2021/12/28 09:30:37;;;;;;;61.93;28.60;;;;;;;-7.82;95.85;100569.19;1707427;83;21513;-66
2021/12/28 09:33:03;;;;;;;68.27;31.67;;;;;;;-7.78;94.98;100571.87;1705135;82;21140;-66
2021/12/28 09:35:31;;;;;;;61.43;28.23;;;;;;;-7.77;94.29;100563.41;1714062;83;21596;-66
2021/12/28 09:37:57;;;;;;;64.77;28.87;;;;;;;-7.74;94.91;100564.80;1714359;83;21178;-66
2021/12/28 09:40:24;;;;;;;68.77;28.77;;;;;;;-7.72;93.80;100559.36;1714173;83;21128;-67
2021/12/28 09:42:50;;;;;;;60.47;26.50;;;;;;;-7.71;93.66;100560.68;1714270;83;21076;-66
2021/12/28 09:45:17;;;;;;;60.90;25.40;;;;;;;-7.69;93.76;100556.92;1713594;83;21140;-66
2021/12/28 09:47:43;;;;;;;58.03;24.67;;;;;;;-7.68;93.02;100560.83;1707798;83;22291;-66
2021/12/28 09:50:15;;;;;;;59.83;26.40;;;;;;;-7.66;93.45;100557.94;1709682;83;21082;-67
2021/12/28 09:52:44;;;;;;;55.77;23.90;;;;;;;-7.62;92.89;100552.53;1704175;83;21170;-67
2021/12/28 09:55:13;;;;;;;58.83;25.13;;;;;;;-7.61;91.72;100551.74;1688546;83;21152;-68
2021/12/28 09:57:40;;;;;;;57.47;24.07;;;;;;;-7.60;92.31;100540.69;1696499;83;21730;-67
2021/12/28 10:00:09;;;;;;;57.17;24.77;;;;;;;-7.56;91.76;100546.41;1695390;83;21045;-67
2021/12/28 10:02:36;;;;;;;61.57;25.73;;;;;;;-7.54;92.28;100537.53;1696758;83;21119;-69
2021/12/28 10:05:07;;;;;;;51.13;24.23;;;;;;;-7.52;91.83;100535.50;1695707;83;21977;-67
2021/12/28 10:07:43;;;;;;;58.07;24.90;;;;;;;-7.49;90.61;100531.78;1696592;83;21053;-66
2021/12/28 10:10:10;;;;;;;57.90;24.97;;;;;;;-7.46;91.50;100528.06;1687637;83;21082;-67
2021/12/28 10:12:44;;;;;;;57.10;26.07;;;;;;;-7.42;90.83;100526.11;1688405;83;21057;-67
2021/12/28 10:15:16;;;;;;;59.73;25.77;;;;;;;-7.37;91.21;100522.88;1700466;83;21140;-67
2021/12/28 10:17:44;;;;;;;59.83;25.57;;;;;;;-7.39;91.03;100521.11;1702804;83;21552;-67
2021/12/28 10:20:19;;;;;;;52.57;23.87;;;;;;;-7.37;89.95;100524.16;1709693;83;21607;-67
2021/12/28 10:22:49;;;;;;;56.57;25.60;;;;;;;-7.37;89.53;100528.00;1711393;83;21061;-66
2021/12/28 10:25:20;;;;;;;53.37;23.93;;;;;;;-7.39;89.09;100524.08;1713926;83;21469;-66
2021/12/28 10:27:51;;;;;;;54.27;22.47;;;;;;;-7.40;89.07;100524.50;1694008;83;21599;-67
2021/12/28 10:30:26;;;;;;;53.23;23.03;;;;;;;-7.42;88.85;100520.12;1698792;83;21159;-67
2021/12/28 10:33:03;;;;;;;54.53;23.73;;;;;;;-7.43;88.51;100513.24;1675588;84;21128;-67
2021/12/28 10:35:35;;;;;;;52.00;21.50;;;;;;;-7.43;88.64;100512.86;1684005;84;21980;-67
2021/12/28 10:38:08;;;;;;;55.30;23.83;;;;;;;-7.41;88.49;100512.53;1701839;84;21027;-68
2021/12/28 10:40:42;;;;;;;54.87;23.40;;;;;;;-7.40;88.52;100510.83;1696953;84;21144;-67
2021/12/28 10:43:14;;;;;;;50.70;22.50;;;;;;;-7.34;89.05;100505.08;1684702;84;21197;-67
2021/12/28 10:45:44;;;;;;;53.33;23.30;;;;;;;-7.28;88.84;100502.78;1679634;84;21184;-68
2021/12/28 10:48:24;;;;;;;52.60;21.75;;;;;;;-7.29;87.78;100504.85;1683845;84;21089;-66
2021/12/28 10:50:59;;;;;;;43.17;20.50;;;;;;;-7.30;87.56;100500.56;1678406;84;21113;-65
2021/12/28 10:53:32;;;;;;;59.33;24.43;;;;;;;-7.31;86.84;100505.23;1679290;84;21187;-66
2021/12/28 10:55:56;;;;;;;;;;;;;;;-7.25;87.82;100497.78;1693135;84;21330;-65
2021/12/28 10:58:28;;;;;;;46.90;19.33;;;;;;;-7.21;89.37;100498.37;1673764;85;20210;-66
2021/12/28 11:00:55;;;;;;;51.40;20.07;;;;;;;-7.20;86.93;100498.83;1674540;85;21109;-65
2021/12/28 11:03:26;;;;;;;58.37;21.90;;;;;;;-7.15;86.78;100497.73;1719319;82;21101;-65
2021/12/28 11:05:55;;;;;;;46.80;20.55;;;;;;;-7.13;86.85;100497.02;1739803;82;21297;-66
2021/12/28 11:08:24;;;;;;;51.83;20.80;;;;;;;-7.08;84.66;100499.34;1740316;82;21123;-66
2021/12/28 11:10:55;;;;;;;52.53;20.83;;;;;;;-7.05;88.51;100490.48;1724310;80;21142;-66